sensor_id;sensor_type;location;lat;lon;timestamp;pressure;altitude;pressure_sealevel;temperature;humidity
39267;BME280;24967;51.154;13.812;2022-09-20T00:01:27;99578.41;;;11.53;93.62
39267;BME280;24967;51.154;13.812;2022-09-20T00:03:58;99570.22;;;11.46;93.63
39267;BME280;24967;51.154;13.812;2022-09-20T00:06:26;99576.34;;;11.03;96.87
39267;BME280;24967;51.154;13.812;2022-09-20T00:08:54;99574.44;;;11.13;96.86
39267;BME280;24967;51.154;13.812;2022-09-20T00:11:22;99587.81;;;11.39;95.54
39267;BME280;24967;51.154;13.812;2022-09-20T00:13:50;99582.13;;;10.98;97.09
39267;BME280;24967;51.154;13.812;2022-09-20T00:16:20;99587.13;;;10.83;97.33
39267;BME280;24967;51.154;13.812;2022-09-20T00:18:48;99583.31;;;10.68;98.14
39267;BME280;24967;51.154;13.812;2022-09-20T00:21:16;99586.25;;;10.92;96.99
39267;BME280;24967;51.154;13.812;2022-09-20T00:23:43;99583.03;;;10.89;96.44
39267;BME280;24967;51.154;13.812;2022-09-20T00:26:09;99588.44;;;10.97;95.84
39267;BME280;24967;51.154;13.812;2022-09-20T00:28:37;99575.03;;;10.71;96.28
39267;BME280;24967;51.154;13.812;2022-09-20T00:31:04;99579.22;;;10.73;96.90
39267;BME280;24967;51.154;13.812;2022-09-20T00:33:32;99583.41;;;10.94;95.47
39267;BME280;24967;51.154;13.812;2022-09-20T00:36:12;99584.78;;;10.80;95.91
39267;BME280;24967;51.154;13.812;2022-09-20T00:38:39;99580.66;;;10.68;97.05
39267;BME280;24967;51.154;13.812;2022-09-20T00:41:05;99589.53;;;10.86;96.59
39267;BME280;24967;51.154;13.812;2022-09-20T00:43:37;99590.09;;;10.98;96.26
39267;BME280;24967;51.154;13.812;2022-09-20T00:46:05;99594.84;;;10.86;97.16
39267;BME280;24967;51.154;13.812;2022-09-20T00:48:43;99591.63;;;11.00;96.20
39267;BME280;24967;51.154;13.812;2022-09-20T00:51:13;99591.63;;;11.18;94.96
39267;BME280;24967;51.154;13.812;2022-09-20T00:53:45;99592.09;;;11.14;95.69
39267;BME280;24967;51.154;13.812;2022-09-20T00:56:16;99594.97;;;11.20;94.95
39267;BME280;24967;51.154;13.812;2022-09-20T00:58:49;99584.75;;;11.34;94.11
39267;BME280;24967;51.154;13.812;2022-09-20T01:01:17;99585.03;;;11.22;94.94
39267;BME280;24967;51.154;13.812;2022-09-20T01:03:47;99588.34;;;11.24;95.36
39267;BME280;24967;51.154;13.812;2022-09-20T01:06:20;99593.66;;;11.24;95.16
39267;BME280;24967;51.154;13.812;2022-09-20T01:08:49;99591.28;;;10.95;97.29
39267;BME280;24967;51.154;13.812;2022-09-20T01:11:17;99590.28;;;11.14;96.42
39267;BME280;24967;51.154;13.812;2022-09-20T01:13:43;99593.69;;;11.07;96.10
39267;BME280;24967;51.154;13.812;2022-09-20T01:16:20;99591.88;;;10.89;97.51
39267;BME280;24967;51.154;13.812;2022-09-20T01:18:49;99594.91;;;11.12;96.81
39267;BME280;24967;51.154;13.812;2022-09-20T01:21:18;99583.19;;;11.23;96.08
39267;BME280;24967;51.154;13.812;2022-09-20T01:23:55;99585.38;;;11.28;95.49
39267;BME280;24967;51.154;13.812;2022-09-20T01:29:43;99591.50;;;11.02;97.55
39267;BME280;24967;51.154;13.812;2022-09-20T01:32:25;99583.19;;;10.69;100.00
39267;BME280;24967;51.154;13.812;2022-09-20T01:34:59;99588.59;;;10.95;99.33
39267;BME280;24967;51.154;13.812;2022-09-20T01:37:37;99579.41;;;10.90;99.45
39267;BME280;24967;51.154;13.812;2022-09-20T01:40:20;99559.03;;;10.81;98.95
39267;BME280;24967;51.154;13.812;2022-09-20T01:42:55;99568.53;;;11.01;98.60
39267;BME280;24967;51.154;13.812;2022-09-20T01:45:31;99579.47;;;10.98;98.72
39267;BME280;24967;51.154;13.812;2022-09-20T01:48:07;99582.50;;;10.85;99.93
39267;BME280;24967;51.154;13.812;2022-09-20T01:50:49;99581.06;;;10.91;99.49
39267;BME280;24967;51.154;13.812;2022-09-20T01:53:47;99582.06;;;11.08;97.96
39267;BME280;24967;51.154;13.812;2022-09-20T01:59:54;99598.25;;;11.32;96.04
39267;BME280;24967;51.154;13.812;2022-09-20T02:02:53;99592.34;;;11.46;95.77
39267;BME280;24967;51.154;13.812;2022-09-20T02:05:47;99597.34;;;11.50;95.56
39267;BME280;24967;51.154;13.812;2022-09-20T02:08:38;99593.41;;;11.54;95.32
39267;BME280;24967;51.154;13.812;2022-09-20T02:11:12;99600.28;;;11.64;94.07
39267;BME280;24967;51.154;13.812;2022-09-20T02:14:04;99594.56;;;11.51;94.77
39267;BME280;24967;51.154;13.812;2022-09-20T02:16:55;99594.88;;;11.48;95.07
39267;BME280;24967;51.154;13.812;2022-09-20T02:20:05;99600.97;;;11.66;94.24
39267;BME280;24967;51.154;13.812;2022-09-20T02:22:52;99597.50;;;11.66;93.04
39267;BME280;24967;51.154;13.812;2022-09-20T02:25:51;99605.16;;;11.69;93.36
39267;BME280;24967;51.154;13.812;2022-09-20T02:28:29;99591.47;;;11.64;93.88
39267;BME280;24967;51.154;13.812;2022-09-20T02:31:09;99592.56;;;11.79;92.84
39267;BME280;24967;51.154;13.812;2022-09-20T02:36:43;99597.34;;;11.23;95.38
39267;BME280;24967;51.154;13.812;2022-09-20T02:39:15;99606.75;;;11.18;97.35
39267;BME280;24967;51.154;13.812;2022-09-20T02:42:00;99606.75;;;11.36;95.85
39267;BME280;24967;51.154;13.812;2022-09-20T02:44:53;99607.13;;;11.41;94.95
39267;BME280;24967;51.154;13.812;2022-09-20T02:47:31;99600.25;;;11.56;93.79
39267;BME280;24967;51.154;13.812;2022-09-20T02:50:10;99612.78;;;11.64;93.57
39267;BME280;24967;51.154;13.812;2022-09-20T02:52:45;99601.72;;;11.51;93.65
39267;BME280;24967;51.154;13.812;2022-09-20T02:55:20;99618.28;;;11.62;93.29
39267;BME280;24967;51.154;13.812;2022-09-20T02:58:01;99615.47;;;11.46;94.17
39267;BME280;24967;51.154;13.812;2022-09-20T03:00:40;99613.06;;;11.35;94.75
39267;BME280;24967;51.154;13.812;2022-09-20T03:03:19;99616.59;;;11.43;94.19
39267;BME280;24967;51.154;13.812;2022-09-20T03:05:56;99627.34;;;11.52;93.29
39267;BME280;24967;51.154;13.812;2022-09-20T03:08:33;99626.88;;;11.56;92.77
39267;BME280;24967;51.154;13.812;2022-09-20T03:11:12;99624.47;;;11.27;95.14
39267;BME280;24967;51.154;13.812;2022-09-20T03:14:10;99631.59;;;11.44;94.88
39267;BME280;24967;51.154;13.812;2022-09-20T03:17:00;99623.09;;;11.05;96.89
39267;BME280;24967;51.154;13.812;2022-09-20T03:19:42;99631.16;;;11.13;96.58
39267;BME280;24967;51.154;13.812;2022-09-20T03:22:33;99606.44;;;10.85;97.22
39267;BME280;24967;51.154;13.812;2022-09-20T03:25:24;99630.84;;;10.81;98.79
39267;BME280;24967;51.154;13.812;2022-09-20T03:28:13;99632.84;;;11.14;97.54
39267;BME280;24967;51.154;13.812;2022-09-20T03:30:53;99637.16;;;11.15;95.03
39267;BME280;24967;51.154;13.812;2022-09-20T03:33:28;99636.03;;;11.18;95.64
39267;BME280;24967;51.154;13.812;2022-09-20T03:36:24;99625.28;;;11.45;94.38
39267;BME280;24967;51.154;13.812;2022-09-20T03:39:18;99634.56;;;11.41;94.11
39267;BME280;24967;51.154;13.812;2022-09-20T03:48:09;99630.63;;;11.28;94.86
39267;BME280;24967;51.154;13.812;2022-09-20T03:50:48;99642.84;;;11.56;92.83
39267;BME280;24967;51.154;13.812;2022-09-20T03:53:48;99639.25;;;11.65;92.80
39267;BME280;24967;51.154;13.812;2022-09-20T04:02:35;99644.06;;;11.62;92.24
39267;BME280;24967;51.154;13.812;2022-09-20T04:05:20;99636.09;;;11.26;94.08
39267;BME280;24967;51.154;13.812;2022-09-20T04:07:57;99645.13;;;11.51;93.15
39267;BME280;24967;51.154;13.812;2022-09-20T04:10:35;99643.84;;;11.19;94.37
39267;BME280;24967;51.154;13.812;2022-09-20T04:13:24;99645.66;;;11.55;92.39
39267;BME280;24967;51.154;13.812;2022-09-20T04:16:25;99631.31;;;11.12;93.94
39267;BME280;24967;51.154;13.812;2022-09-20T04:19:13;99651.28;;;11.34;93.81
39267;BME280;24967;51.154;13.812;2022-09-20T04:21:48;99648.88;;;11.22;93.07
39267;BME280;24967;51.154;13.812;2022-09-20T04:24:23;99658.00;;;11.38;93.15
39267;BME280;24967;51.154;13.812;2022-09-20T04:26:58;99652.44;;;11.31;93.17
39267;BME280;24967;51.154;13.812;2022-09-20T04:29:33;99653.34;;;11.04;94.86
39267;BME280;24967;51.154;13.812;2022-09-20T04:32:11;99651.47;;;11.32;92.99
39267;BME280;24967;51.154;13.812;2022-09-20T04:34:44;99652.53;;;11.21;93.34
39267;BME280;24967;51.154;13.812;2022-09-20T04:37:30;99660.06;;;11.26;93.51
39267;BME280;24967;51.154;13.812;2022-09-20T04:40:14;99669.88;;;10.80;96.48
39267;BME280;24967;51.154;13.812;2022-09-20T04:43:29;99669.84;;;11.08;95.03
39267;BME280;24967;51.154;13.812;2022-09-20T04:49:35;99671.72;;;10.97;95.36
39267;BME280;24967;51.154;13.812;2022-09-20T04:52:31;99674.56;;;10.96;95.71
39267;BME280;24967;51.154;13.812;2022-09-20T04:55:45;99673.63;;;10.87;96.61
39267;BME280;24967;51.154;13.812;2022-09-20T04:58:37;99676.91;;;10.99;95.27
39267;BME280;24967;51.154;13.812;2022-09-20T05:01:39;99680.53;;;10.98;95.52
39267;BME280;24967;51.154;13.812;2022-09-20T05:08:00;99675.25;;;11.34;93.18
39267;BME280;24967;51.154;13.812;2022-09-20T05:10:51;99681.78;;;11.21;93.03
39267;BME280;24967;51.154;13.812;2022-09-20T05:13:30;99679.06;;;11.31;92.25
39267;BME280;24967;51.154;13.812;2022-09-20T05:16:02;99684.97;;;11.25;93.27
39267;BME280;24967;51.154;13.812;2022-09-20T05:25:02;99685.91;;;11.52;92.00
39267;BME280;24967;51.154;13.812;2022-09-20T05:27:54;99685.56;;;11.73;90.68
39267;BME280;24967;51.154;13.812;2022-09-20T05:30:30;99684.94;;;11.35;91.36
39267;BME280;24967;51.154;13.812;2022-09-20T05:33:11;99685.81;;;11.61;91.00
39267;BME280;24967;51.154;13.812;2022-09-20T05:35:50;99693.81;;;11.43;91.39
39267;BME280;24967;51.154;13.812;2022-09-20T05:38:25;99697.03;;;11.47;91.15
39267;BME280;24967;51.154;13.812;2022-09-20T05:41:03;99701.94;;;11.60;91.06
39267;BME280;24967;51.154;13.812;2022-09-20T05:43:36;99704.69;;;11.68;90.31
39267;BME280;24967;51.154;13.812;2022-09-20T05:46:15;99711.31;;;11.46;90.81
39267;BME280;24967;51.154;13.812;2022-09-20T05:48:54;99708.22;;;11.77;89.40
39267;BME280;24967;51.154;13.812;2022-09-20T05:51:57;99710.63;;;11.62;89.84
39267;BME280;24967;51.154;13.812;2022-09-20T05:54:53;99717.41;;;11.74;89.73
39267;BME280;24967;51.154;13.812;2022-09-20T05:57:38;99722.13;;;11.62;90.45
39267;BME280;24967;51.154;13.812;2022-09-20T06:00:14;99721.03;;;11.55;91.44
39267;BME280;24967;51.154;13.812;2022-09-20T06:03:04;99717.00;;;11.51;91.03
39267;BME280;24967;51.154;13.812;2022-09-20T06:05:48;99716.00;;;11.52;91.56
39267;BME280;24967;51.154;13.812;2022-09-20T06:08:55;99720.50;;;11.52;91.67
39267;BME280;24967;51.154;13.812;2022-09-20T06:11:52;99726.44;;;11.63;91.60
39267;BME280;24967;51.154;13.812;2022-09-20T06:14:45;99718.91;;;11.59;91.35
39267;BME280;24967;51.154;13.812;2022-09-20T06:17:24;99728.88;;;11.57;92.02
39267;BME280;24967;51.154;13.812;2022-09-20T06:20:03;99726.31;;;11.47;92.27
39267;BME280;24967;51.154;13.812;2022-09-20T06:22:38;99732.28;;;11.31;93.99
39267;BME280;24967;51.154;13.812;2022-09-20T06:25:15;99734.03;;;11.40;93.43
39267;BME280;24967;51.154;13.812;2022-09-20T06:27:50;99736.34;;;11.35;94.41
39267;BME280;24967;51.154;13.812;2022-09-20T06:30:36;99730.47;;;11.32;94.01
39267;BME280;24967;51.154;13.812;2022-09-20T06:33:13;99731.38;;;11.40;94.31
39267;BME280;24967;51.154;13.812;2022-09-20T06:35:45;99740.59;;;11.46;93.86
39267;BME280;24967;51.154;13.812;2022-09-20T06:38:35;99729.94;;;11.46;94.06
39267;BME280;24967;51.154;13.812;2022-09-20T06:41:38;99734.66;;;11.52;93.47
39267;BME280;24967;51.154;13.812;2022-09-20T06:44:05;99727.06;;;11.57;93.34
39267;BME280;24967;51.154;13.812;2022-09-20T06:46:36;99734.03;;;11.58;93.22
39267;BME280;24967;51.154;13.812;2022-09-20T06:49:03;99740.66;;;11.54;93.25
39267;BME280;24967;51.154;13.812;2022-09-20T06:51:34;99746.16;;;11.35;93.47
39267;BME280;24967;51.154;13.812;2022-09-20T06:54:03;99752.59;;;11.32;93.63
39267;BME280;24967;51.154;13.812;2022-09-20T06:56:33;99743.38;;;11.27;95.21
39267;BME280;24967;51.154;13.812;2022-09-20T06:59:06;99744.31;;;11.35;93.76
39267;BME280;24967;51.154;13.812;2022-09-20T07:01:35;99756.25;;;11.49;93.59
39267;BME280;24967;51.154;13.812;2022-09-20T07:04:02;99755.94;;;11.34;94.72
39267;BME280;24967;51.154;13.812;2022-09-20T07:06:29;99759.69;;;11.41;95.15
39267;BME280;24967;51.154;13.812;2022-09-20T07:08:55;99763.75;;;11.18;95.86
39267;BME280;24967;51.154;13.812;2022-09-20T07:11:22;99764.25;;;11.49;94.59
39267;BME280;24967;51.154;13.812;2022-09-20T07:13:50;99761.13;;;11.36;95.21
39267;BME280;24967;51.154;13.812;2022-09-20T07:16:18;99774.22;;;11.47;94.43
39267;BME280;24967;51.154;13.812;2022-09-20T07:18:46;99771.63;;;11.55;93.94
39267;BME280;24967;51.154;13.812;2022-09-20T07:21:15;99773.63;;;11.53;93.70
39267;BME280;24967;51.154;13.812;2022-09-20T07:23:42;99777.13;;;11.72;93.32
39267;BME280;24967;51.154;13.812;2022-09-20T07:26:16;99785.69;;;11.48;94.34
39267;BME280;24967;51.154;13.812;2022-09-20T07:28:43;99781.47;;;11.27;95.94
39267;BME280;24967;51.154;13.812;2022-09-20T07:31:10;99784.25;;;11.35;94.82
39267;BME280;24967;51.154;13.812;2022-09-20T07:33:36;99785.59;;;11.39;93.89
39267;BME280;24967;51.154;13.812;2022-09-20T07:36:05;99787.06;;;11.52;94.29
39267;BME280;24967;51.154;13.812;2022-09-20T07:38:31;99789.75;;;11.24;95.31
39267;BME280;24967;51.154;13.812;2022-09-20T07:40:59;99800.00;;;11.19;95.53
39267;BME280;24967;51.154;13.812;2022-09-20T07:43:27;99798.78;;;11.41;95.16
39267;BME280;24967;51.154;13.812;2022-09-20T07:45:54;99804.38;;;11.65;93.07
39267;BME280;24967;51.154;13.812;2022-09-20T07:48:24;99800.31;;;11.61;93.14
39267;BME280;24967;51.154;13.812;2022-09-20T07:50:53;99802.91;;;11.53;93.35
39267;BME280;24967;51.154;13.812;2022-09-20T07:53:21;99808.06;;;11.55;93.26
39267;BME280;24967;51.154;13.812;2022-09-20T07:56:01;99806.31;;;11.63;92.40
39267;BME280;24967;51.154;13.812;2022-09-20T07:58:30;99815.34;;;11.35;93.02
39267;BME280;24967;51.154;13.812;2022-09-20T08:00:59;99813.84;;;11.50;93.70
39267;BME280;24967;51.154;13.812;2022-09-20T08:03:28;99810.03;;;11.35;95.18
39267;BME280;24967;51.154;13.812;2022-09-20T08:05:58;99813.59;;;11.89;92.27
39267;BME280;24967;51.154;13.812;2022-09-20T08:08:27;99809.25;;;11.88;92.65
39267;BME280;24967;51.154;13.812;2022-09-20T08:11:00;99821.28;;;11.92;93.07
39267;BME280;24967;51.154;13.812;2022-09-20T08:13:29;99809.19;;;11.98;91.90
39267;BME280;24967;51.154;13.812;2022-09-20T08:16:00;99811.91;;;11.88;91.44
39267;BME280;24967;51.154;13.812;2022-09-20T08:18:27;99815.94;;;12.10;91.16
39267;BME280;24967;51.154;13.812;2022-09-20T08:20:53;99819.38;;;12.02;90.67
39267;BME280;24967;51.154;13.812;2022-09-20T08:23:20;99817.25;;;11.88;91.52
39267;BME280;24967;51.154;13.812;2022-09-20T08:25:48;99819.38;;;12.02;91.33
39267;BME280;24967;51.154;13.812;2022-09-20T08:28:14;99817.47;;;11.95;90.27
39267;BME280;24967;51.154;13.812;2022-09-20T08:30:41;99816.81;;;11.93;90.00
39267;BME280;24967;51.154;13.812;2022-09-20T08:33:08;99817.72;;;12.01;89.64
39267;BME280;24967;51.154;13.812;2022-09-20T08:35:35;99825.84;;;12.00;88.79
39267;BME280;24967;51.154;13.812;2022-09-20T08:38:02;99823.19;;;12.00;89.09
39267;BME280;24967;51.154;13.812;2022-09-20T08:40:29;99823.19;;;12.18;89.43
39267;BME280;24967;51.154;13.812;2022-09-20T08:42:57;99822.88;;;11.85;92.15
39267;BME280;24967;51.154;13.812;2022-09-20T08:45:25;99826.59;;;11.92;90.89
39267;BME280;24967;51.154;13.812;2022-09-20T08:47:55;99818.38;;;11.85;92.54
39267;BME280;24967;51.154;13.812;2022-09-20T08:50:23;99821.13;;;11.94;91.96
39267;BME280;24967;51.154;13.812;2022-09-20T08:52:53;99827.69;;;12.17;92.50
39267;BME280;24967;51.154;13.812;2022-09-20T08:55:23;99824.50;;;12.40;91.30
39267;BME280;24967;51.154;13.812;2022-09-20T08:57:53;99825.50;;;12.65;90.35
39267;BME280;24967;51.154;13.812;2022-09-20T09:00:25;99824.22;;;12.69;87.39
39267;BME280;24967;51.154;13.812;2022-09-20T09:02:54;99829.81;;;12.57;87.75
39267;BME280;24967;51.154;13.812;2022-09-20T09:05:29;99827.38;;;12.20;87.36
39267;BME280;24967;51.154;13.812;2022-09-20T09:08:02;99823.56;;;12.23;88.67
39267;BME280;24967;51.154;13.812;2022-09-20T09:10:34;99826.53;;;12.20;90.18
39267;BME280;24967;51.154;13.812;2022-09-20T09:13:02;99842.13;;;12.32;89.89
39267;BME280;24967;51.154;13.812;2022-09-20T09:15:33;99828.28;;;12.55;91.75
39267;BME280;24967;51.154;13.812;2022-09-20T09:18:00;99828.66;;;12.86;89.88
39267;BME280;24967;51.154;13.812;2022-09-20T09:20:27;99819.53;;;12.71;88.86
39267;BME280;24967;51.154;13.812;2022-09-20T09:23:00;99829.19;;;12.90;87.35
39267;BME280;24967;51.154;13.812;2022-09-20T09:25:29;99826.84;;;12.87;85.82
39267;BME280;24967;51.154;13.812;2022-09-20T09:28:00;99832.75;;;12.98;84.39
39267;BME280;24967;51.154;13.812;2022-09-20T09:30:33;99832.06;;;12.96;82.16
39267;BME280;24967;51.154;13.812;2022-09-20T09:33:15;99838.28;;;13.05;82.81
39267;BME280;24967;51.154;13.812;2022-09-20T09:35:43;99836.47;;;13.14;83.13
39267;BME280;24967;51.154;13.812;2022-09-20T09:38:17;99839.31;;;13.46;80.01
39267;BME280;24967;51.154;13.812;2022-09-20T09:40:50;99840.94;;;13.39;79.71
39267;BME280;24967;51.154;13.812;2022-09-20T09:43:21;99840.34;;;13.54;79.09
39267;BME280;24967;51.154;13.812;2022-09-20T09:45:53;99841.66;;;13.49;79.02
39267;BME280;24967;51.154;13.812;2022-09-20T09:48:23;99839.75;;;13.34;78.45
39267;BME280;24967;51.154;13.812;2022-09-20T09:50:51;99838.09;;;13.33;79.03
39267;BME280;24967;51.154;13.812;2022-09-20T09:53:31;99849.78;;;13.32;79.29
39267;BME280;24967;51.154;13.812;2022-09-20T09:56:17;99850.94;;;13.37;78.39
39267;BME280;24967;51.154;13.812;2022-09-20T10:01:42;99849.78;;;13.32;81.37
39267;BME280;24967;51.154;13.812;2022-09-20T10:04:16;99841.84;;;13.22;79.84
39267;BME280;24967;51.154;13.812;2022-09-20T10:06:49;99846.59;;;13.36;80.32
39267;BME280;24967;51.154;13.812;2022-09-20T10:09:26;99837.81;;;13.18;82.51
39267;BME280;24967;51.154;13.812;2022-09-20T10:12:04;99841.91;;;13.30;80.62
39267;BME280;24967;51.154;13.812;2022-09-20T10:14:41;99851.09;;;13.01;81.96
39267;BME280;24967;51.154;13.812;2022-09-20T10:17:32;99855.44;;;13.28;80.55
39267;BME280;24967;51.154;13.812;2022-09-20T10:20:22;99848.91;;;13.31;80.26
39267;BME280;24967;51.154;13.812;2022-09-20T10:23:01;99860.09;;;13.26;81.37
39267;BME280;24967;51.154;13.812;2022-09-20T10:25:38;99850.94;;;13.37;81.14
39267;BME280;24967;51.154;13.812;2022-09-20T10:28:19;99856.69;;;13.50;80.74
39267;BME280;24967;51.154;13.812;2022-09-20T10:30:55;99858.94;;;13.37;79.00
39267;BME280;24967;51.154;13.812;2022-09-20T10:33:31;99862.69;;;13.18;80.19
39267;BME280;24967;51.154;13.812;2022-09-20T10:36:13;99860.47;;;13.32;78.95
39267;BME280;24967;51.154;13.812;2022-09-20T10:38:44;99863.81;;;13.42;80.69
39267;BME280;24967;51.154;13.812;2022-09-20T10:41:25;99865.03;;;13.47;80.72
39267;BME280;24967;51.154;13.812;2022-09-20T10:44:25;99867.88;;;13.20;82.55
39267;BME280;24967;51.154;13.812;2022-09-20T10:47:02;99863.69;;;13.51;80.33
39267;BME280;24967;51.154;13.812;2022-09-20T10:49:41;99871.13;;;13.74;78.73
39267;BME280;24967;51.154;13.812;2022-09-20T10:52:42;99868.47;;;13.90;77.45
39267;BME280;24967;51.154;13.812;2022-09-20T10:55:21;99869.16;;;14.09;77.78
39267;BME280;24967;51.154;13.812;2022-09-20T10:58:04;99866.47;;;14.01;77.19
39267;BME280;24967;51.154;13.812;2022-09-20T11:00:42;99862.66;;;14.11;75.96
39267;BME280;24967;51.154;13.812;2022-09-20T11:03:19;99867.50;;;14.16;75.20
39267;BME280;24967;51.154;13.812;2022-09-20T11:06:00;99868.31;;;13.92;76.22
39267;BME280;24967;51.154;13.812;2022-09-20T11:08:33;99871.66;;;13.94;73.55
39267;BME280;24967;51.154;13.812;2022-09-20T11:11:05;99874.00;;;14.05;74.91
39267;BME280;24967;51.154;13.812;2022-09-20T11:13:36;99870.34;;;14.31;75.45
39267;BME280;24967;51.154;13.812;2022-09-20T11:16:08;99867.22;;;14.60;72.60
39267;BME280;24967;51.154;13.812;2022-09-20T11:18:40;99866.72;;;14.56;72.95
39267;BME280;24967;51.154;13.812;2022-09-20T11:21:14;99873.03;;;14.31;72.37
39267;BME280;24967;51.154;13.812;2022-09-20T11:23:48;99879.72;;;14.27;72.20
39267;BME280;24967;51.154;13.812;2022-09-20T11:26:23;99869.53;;;14.47;72.92
39267;BME280;24967;51.154;13.812;2022-09-20T11:28:55;99864.88;;;14.57;73.52
39267;BME280;24967;51.154;13.812;2022-09-20T11:31:25;99872.56;;;14.60;71.61
39267;BME280;24967;51.154;13.812;2022-09-20T11:33:59;99869.53;;;14.30;70.26
39267;BME280;24967;51.154;13.812;2022-09-20T11:36:36;99860.69;;;14.71;70.29
39267;BME280;24967;51.154;13.812;2022-09-20T11:39:12;99863.19;;;14.64;68.77
39267;BME280;24967;51.154;13.812;2022-09-20T11:41:40;99858.81;;;14.79;69.13
39267;BME280;24967;51.154;13.812;2022-09-20T11:44:11;99858.81;;;14.87;69.13
39267;BME280;24967;51.154;13.812;2022-09-20T11:46:44;99864.97;;;14.96;67.96
39267;BME280;24967;51.154;13.812;2022-09-20T11:49:15;99865.47;;;15.00;68.52
39267;BME280;24967;51.154;13.812;2022-09-20T11:52:11;99858.81;;;14.87;68.92
39267;BME280;24967;51.154;13.812;2022-09-20T11:55:01;99863.19;;;14.64;71.51
39267;BME280;24967;51.154;13.812;2022-09-20T11:57:32;99865.88;;;14.64;70.38
39267;BME280;24967;51.154;13.812;2022-09-20T12:00:01;99868.03;;;14.77;72.23
39267;BME280;24967;51.154;13.812;2022-09-20T12:02:41;99861.53;;;14.63;71.32
39267;BME280;24967;51.154;13.812;2022-09-20T12:05:21;99856.47;;;14.93;70.98
39267;BME280;24967;51.154;13.812;2022-09-20T12:07:53;99856.09;;;15.04;70.63
39267;BME280;24967;51.154;13.812;2022-09-20T12:10:22;99848.34;;;15.25;72.74
39267;BME280;24967;51.154;13.812;2022-09-20T12:12:55;99850.38;;;15.54;70.25
39267;BME280;24967;51.154;13.812;2022-09-20T12:15:25;99853.09;;;15.86;69.20
39267;BME280;24967;51.154;13.812;2022-09-20T12:21:14;99845.97;;;16.01;66.31
39267;BME280;24967;51.154;13.812;2022-09-20T12:26:43;99845.44;;;15.74;63.65
39267;BME280;24967;51.154;13.812;2022-09-20T12:32:46;99846.81;;;15.70;65.63
39267;BME280;24967;51.154;13.812;2022-09-20T12:38:48;99838.00;;;15.14;64.17
39267;BME280;24967;51.154;13.812;2022-09-20T12:41:17;99839.16;;;15.11;66.66
39267;BME280;24967;51.154;13.812;2022-09-20T12:43:52;99834.53;;;15.37;62.45
39267;BME280;24967;51.154;13.812;2022-09-20T12:46:29;99839.41;;;15.72;62.67
39267;BME280;24967;51.154;13.812;2022-09-20T12:49:19;99838.44;;;15.65;63.02
39267;BME280;24967;51.154;13.812;2022-09-20T12:52:21;99841.00;;;15.58;64.04
39267;BME280;24967;51.154;13.812;2022-09-20T12:55:08;99835.81;;;15.49;64.44
39267;BME280;24967;51.154;13.812;2022-09-20T12:57:37;99840.47;;;15.55;65.84
39267;BME280;24967;51.154;13.812;2022-09-20T13:00:06;99834.16;;;15.48;67.15
39267;BME280;24967;51.154;13.812;2022-09-20T13:02:57;99834.03;;;15.80;64.37
39267;BME280;24967;51.154;13.812;2022-09-20T13:05:33;99840.25;;;15.73;63.63
39267;BME280;24967;51.154;13.812;2022-09-20T13:08:11;99839.03;;;15.84;64.36
39267;BME280;24967;51.154;13.812;2022-09-20T13:10:44;99854.09;;;15.85;64.20
39267;BME280;24967;51.154;13.812;2022-09-20T13:13:27;99841.78;;;15.67;64.11
39267;BME280;24967;51.154;13.812;2022-09-20T13:15:57;99853.28;;;15.76;63.39
39267;BME280;24967;51.154;13.812;2022-09-20T13:18:26;99845.59;;;15.33;64.32
39267;BME280;24967;51.154;13.812;2022-09-20T13:20:55;99842.16;;;15.56;65.38
39267;BME280;24967;51.154;13.812;2022-09-20T13:23:24;99849.78;;;15.75;64.62
39267;BME280;24967;51.154;13.812;2022-09-20T13:25:55;99856.00;;;15.99;63.10
39267;BME280;24967;51.154;13.812;2022-09-20T13:28:30;99856.66;;;15.78;61.24
39267;BME280;24967;51.154;13.812;2022-09-20T13:31:23;99851.41;;;15.85;61.19
39267;BME280;24967;51.154;13.812;2022-09-20T13:33:49;99855.00;;;15.77;61.81
39267;BME280;24967;51.154;13.812;2022-09-20T13:36:23;99860.00;;;15.80;60.65
39267;BME280;24967;51.154;13.812;2022-09-20T13:38:52;99855.59;;;15.48;61.36
39267;BME280;24967;51.154;13.812;2022-09-20T13:41:21;99864.13;;;15.51;61.22
39267;BME280;24967;51.154;13.812;2022-09-20T13:43:48;99867.13;;;15.56;61.69
39267;BME280;24967;51.154;13.812;2022-09-20T13:46:21;99877.00;;;15.08;57.66
39267;BME280;24967;51.154;13.812;2022-09-20T13:48:52;99878.50;;;15.03;56.36
39267;BME280;24967;51.154;13.812;2022-09-20T13:51:23;99879.09;;;14.57;56.55
39267;BME280;24967;51.154;13.812;2022-09-20T13:53:50;99879.03;;;14.49;57.92
39267;BME280;24967;51.154;13.812;2022-09-20T13:56:22;99891.94;;;14.29;58.96
39267;BME280;24967;51.154;13.812;2022-09-20T13:58:50;99890.25;;;14.36;58.58
39267;BME280;24967;51.154;13.812;2022-09-20T14:01:23;99897.75;;;14.08;59.77
39267;BME280;24967;51.154;13.812;2022-09-20T14:03:53;99897.31;;;13.70;59.49
39267;BME280;24967;51.154;13.812;2022-09-20T14:06:23;99898.13;;;13.63;59.47
39267;BME280;24967;51.154;13.812;2022-09-20T14:08:52;99903.84;;;13.68;60.62
39267;BME280;24967;51.154;13.812;2022-09-20T14:11:22;99917.28;;;13.50;61.42
39267;BME280;24967;51.154;13.812;2022-09-20T14:13:52;99910.53;;;13.38;61.54
39267;BME280;24967;51.154;13.812;2022-09-20T14:16:23;99892.72;;;13.20;62.99
39267;BME280;24967;51.154;13.812;2022-09-20T14:18:53;99893.19;;;13.42;63.75
39267;BME280;24967;51.154;13.812;2022-09-20T14:21:23;99889.19;;;13.38;61.36
39267;BME280;24967;51.154;13.812;2022-09-20T14:23:51;99883.72;;;13.47;60.35
39267;BME280;24967;51.154;13.812;2022-09-20T14:26:24;99878.72;;;13.52;61.93
39267;BME280;24967;51.154;13.812;2022-09-20T14:28:52;99890.28;;;13.69;61.38